Terminal Aerodrome Forecast
Issued by NWS Sterling, VA

Home | Current Version | Previous Version | Text Only | Print | Product List | Glossary On
Versions: 1 2 3 4 5 6 7 8 9 10 11 12 13 14 15 16
309
FTUS41 KLWX 251738
TAFMRB
TAF
KMRB 251738Z 2518/2618 25006KT P6SM VCTS BKN050CB
     FM252100 26008KT P6SM -SHRA VCTS BKN060CB
     FM260100 29006KT P6SM BKN060
     FM260900 VRB03KT 3SM BR BKN120
     FM261200 31004KT P6SM BKN040
     FM261500 32005KT P6SM SCT050=

USA.gov is the U.S. government's official web portal to all federal, state and local government web resources and services.